createdAt,value
2017-08-27T00:01:26.112Z,21.27
2017-08-27T00:03:53.831Z,22.62
2017-08-27T00:06:21.449Z,21.23
2017-08-27T00:08:49.073Z,21.12
2017-08-27T00:11:17.393Z,22.45
2017-08-27T00:13:44.968Z,23.30
2017-08-27T00:16:12.547Z,23.70
2017-08-27T00:18:40.109Z,24.20
2017-08-27T00:21:07.671Z,23.55
2017-08-27T00:23:35.240Z,23.17
2017-08-27T00:26:02.804Z,23.38
2017-08-27T00:28:30.355Z,24.20
2017-08-27T00:30:57.981Z,23.70
2017-08-27T00:33:25.712Z,22.42
2017-08-27T00:35:53.263Z,22.23
2017-08-27T00:38:20.775Z,22.52
2017-08-27T00:40:48.376Z,22.25
2017-08-27T00:43:15.951Z,24.67
2017-08-27T00:45:43.500Z,24.30
2017-08-27T00:48:11.045Z,24.55
2017-08-27T00:50:38.603Z,25.80
2017-08-27T00:53:06.205Z,26.30
2017-08-27T00:55:33.806Z,27.02
2017-08-27T00:58:01.351Z,26.17
2017-08-27T01:00:28.922Z,26.40
2017-08-27T01:02:56.490Z,26.20
2017-08-27T01:05:24.054Z,24.30
2017-08-27T01:07:51.595Z,26.00
2017-08-27T01:10:19.180Z,22.95
2017-08-27T01:12:46.686Z,27.00
2017-08-27T01:15:14.274Z,25.92
2017-08-27T01:17:42.022Z,25.67
2017-08-27T01:20:10.482Z,25.52
2017-08-27T01:22:38.082Z,26.60
2017-08-27T01:25:05.685Z,25.08
2017-08-27T01:27:33.234Z,27.20
2017-08-27T01:30:00.770Z,27.87
2017-08-27T01:32:28.355Z,27.60
2017-08-27T01:34:55.871Z,28.60
2017-08-27T01:37:23.388Z,29.20
2017-08-27T01:39:51.127Z,34.08
2017-08-27T01:42:18.729Z,30.10
2017-08-27T01:44:46.275Z,30.52
2017-08-27T01:47:13.870Z,31.20
2017-08-27T01:49:41.386Z,34.92
2017-08-27T01:52:08.984Z,31.80
2017-08-27T01:54:36.589Z,34.25
2017-08-27T01:57:04.141Z,35.13
2017-08-27T01:59:31.704Z,31.08
2017-08-27T02:01:59.365Z,35.25
2017-08-27T02:04:26.943Z,30.90
2017-08-27T02:06:54.498Z,34.63
2017-08-27T02:09:22.092Z,32.15
2017-08-27T02:11:49.650Z,34.25
2017-08-27T02:14:17.242Z,34.50
2017-08-27T02:16:44.838Z,34.63
2017-08-27T02:19:12.405Z,36.17
2017-08-27T02:21:39.958Z,34.88
2017-08-27T02:24:07.625Z,33.80
2017-08-27T02:26:35.212Z,32.42
2017-08-27T02:29:02.805Z,33.95
2017-08-27T02:31:30.365Z,32.83
2017-08-27T02:33:57.930Z,34.78
2017-08-27T02:36:25.469Z,34.45
2017-08-27T02:38:53.197Z,32.65
2017-08-27T02:41:20.747Z,33.60
2017-08-27T02:43:48.328Z,33.33
2017-08-27T02:46:15.961Z,32.42
2017-08-27T02:48:43.435Z,34.60
2017-08-27T02:51:10.980Z,32.78
2017-08-27T02:53:38.583Z,32.58
2017-08-27T02:56:06.116Z,33.42
2017-08-27T02:58:33.691Z,32.53
2017-08-27T03:01:01.443Z,32.88
2017-08-27T03:03:29.001Z,32.97
2017-08-27T03:05:56.538Z,32.25
2017-08-27T03:08:24.075Z,34.10
2017-08-27T03:10:51.649Z,34.30
2017-08-27T03:13:19.187Z,33.25
2017-08-27T03:15:46.890Z,31.60
2017-08-27T03:18:14.441Z,29.58
2017-08-27T03:20:41.987Z,30.45
2017-08-27T03:23:09.615Z,29.37
2017-08-27T03:25:37.157Z,30.37
2017-08-27T03:28:04.751Z,30.75
2017-08-27T03:30:32.322Z,29.42
2017-08-27T03:32:59.851Z,29.23
2017-08-27T03:35:27.498Z,29.95
2017-08-27T03:37:55.120Z,29.05
2017-08-27T03:40:22.689Z,30.05
2017-08-27T03:42:50.317Z,28.92
2017-08-27T03:45:17.886Z,29.80
2017-08-27T03:47:45.463Z,30.30
2017-08-27T03:50:13.033Z,30.35
2017-08-27T03:52:40.582Z,28.62
2017-08-27T03:55:08.118Z,28.12
2017-08-27T03:57:35.648Z,28.10
2017-08-27T04:00:03.245Z,26.70
2017-08-27T04:02:30.830Z,25.52
2017-08-27T04:04:58.430Z,29.08
2017-08-27T04:07:25.993Z,27.27
2017-08-27T04:09:53.521Z,26.58
2017-08-27T04:12:21.040Z,29.40
2017-08-27T04:14:48.690Z,32.25
2017-08-27T04:17:16.206Z,31.55
2017-08-27T04:19:44.380Z,38.67
2017-08-27T04:22:12.053Z,38.85
2017-08-27T04:24:39.570Z,42.90
2017-08-27T04:27:07.177Z,45.60
2017-08-27T04:29:34.762Z,45.20
2017-08-27T04:32:02.321Z,45.22
2017-08-27T04:34:29.880Z,46.67
2017-08-27T04:36:57.486Z,45.70
2017-08-27T04:39:25.050Z,47.45
2017-08-27T04:41:52.593Z,45.80
2017-08-27T04:44:20.189Z,46.22
2017-08-27T04:46:47.821Z,43.25
2017-08-27T04:49:15.365Z,45.15
2017-08-27T04:51:42.985Z,45.50
2017-08-27T04:54:10.531Z,45.30
2017-08-27T04:56:38.056Z,43.45
2017-08-27T04:59:05.688Z,41.40
2017-08-27T05:01:33.203Z,43.13
2017-08-27T05:04:00.777Z,41.78
2017-08-27T05:06:28.529Z,39.25
2017-08-27T05:08:56.071Z,40.88
2017-08-27T05:11:24.790Z,40.47
2017-08-27T05:13:52.436Z,37.05
2017-08-27T05:16:19.995Z,37.35
2017-08-27T05:18:47.584Z,35.63
2017-08-27T05:21:15.213Z,36.13
2017-08-27T05:23:42.749Z,33.35
2017-08-27T05:26:10.291Z,32.10
2017-08-27T05:28:37.880Z,31.37
2017-08-27T05:31:05.432Z,30.52
2017-08-27T05:33:33.030Z,30.83
2017-08-27T05:36:00.615Z,30.67
2017-08-27T05:38:28.272Z,28.05
2017-08-27T05:40:55.865Z,27.67
2017-08-27T05:43:23.671Z,28.83
2017-08-27T05:45:51.184Z,27.83
2017-08-27T05:48:18.796Z,28.40
2017-08-27T05:50:46.445Z,27.27
2017-08-27T05:53:14.050Z,29.80
2017-08-27T05:55:41.770Z,28.90
2017-08-27T05:58:09.532Z,31.02
2017-08-27T06:00:37.117Z,28.02
2017-08-27T06:03:04.705Z,26.67
2017-08-27T06:05:32.291Z,25.37
2017-08-27T06:08:13.849Z,25.42
2017-08-27T06:10:41.887Z,25.65
2017-08-27T06:13:10.645Z,22.83
2017-08-27T06:15:38.287Z,22.60
2017-08-27T06:18:06.129Z,26.15
2017-08-27T06:20:33.730Z,24.27
2017-08-27T06:23:01.303Z,25.10
2017-08-27T06:25:28.932Z,23.25
2017-08-27T06:27:56.461Z,24.90
2017-08-27T06:30:24.197Z,24.02
2017-08-27T06:32:52.364Z,23.70
2017-08-27T06:35:19.878Z,23.50
2017-08-27T06:37:47.464Z,19.70
2017-08-27T06:40:15.119Z,20.30
2017-08-27T06:42:42.673Z,18.80
2017-08-27T06:45:10.162Z,20.30
2017-08-27T06:47:37.803Z,19.00
2017-08-27T06:50:05.443Z,19.03
2017-08-27T06:52:33.025Z,20.10
2017-08-27T06:55:00.771Z,21.40
2017-08-27T06:57:28.299Z,20.83
2017-08-27T06:59:55.851Z,20.60
2017-08-27T07:02:23.493Z,22.37
2017-08-27T07:04:51.092Z,20.58
2017-08-27T07:07:18.639Z,20.17
2017-08-27T07:09:46.287Z,18.03
2017-08-27T07:12:13.795Z,20.53
2017-08-27T07:14:41.332Z,20.20
2017-08-27T07:17:11.255Z,20.20
2017-08-27T07:19:38.803Z,19.83
2017-08-27T07:22:06.367Z,16.80
2017-08-27T07:24:33.989Z,17.27
2017-08-27T07:27:01.641Z,16.00
2017-08-27T07:29:29.245Z,15.90
2017-08-27T07:31:56.892Z,15.10
2017-08-27T07:34:24.481Z,14.53
2017-08-27T07:36:52.968Z,14.20
2017-08-27T07:39:20.741Z,12.60
2017-08-27T07:41:51.530Z,12.57
2017-08-27T07:44:19.102Z,11.83
2017-08-27T07:46:46.718Z,12.03
2017-08-27T07:49:14.287Z,11.33
2017-08-27T07:51:41.956Z,11.87
2017-08-27T07:54:09.575Z,12.97
2017-08-27T07:56:37.181Z,12.10
2017-08-27T07:59:04.993Z,12.37
2017-08-27T08:01:32.640Z,12.60
2017-08-27T08:04:03.651Z,11.70
2017-08-27T08:06:31.529Z,11.90
2017-08-27T08:08:59.179Z,12.33
2017-08-27T08:11:27.326Z,12.10
2017-08-27T08:13:55.373Z,11.03
2017-08-27T08:16:23.045Z,11.90
2017-08-27T08:18:51.208Z,11.03
2017-08-27T08:21:18.966Z,12.20
2017-08-27T08:23:46.754Z,11.87
2017-08-27T08:26:14.384Z,9.67
2017-08-27T08:28:41.934Z,9.00
2017-08-27T08:31:09.604Z,9.50
2017-08-27T08:33:37.300Z,9.20
2017-08-27T08:36:04.850Z,9.37
2017-08-27T08:38:32.442Z,7.30
2017-08-27T08:41:00.000Z,7.37
2017-08-27T08:43:27.567Z,7.97
2017-08-27T08:45:55.164Z,8.40
2017-08-27T08:48:22.687Z,7.90
2017-08-27T08:50:50.332Z,7.83
2017-08-27T08:53:17.969Z,8.60
2017-08-27T08:55:45.501Z,9.33
2017-08-27T08:58:13.057Z,10.20
2017-08-27T09:00:40.776Z,9.73
2017-08-27T09:03:08.354Z,8.33
2017-08-27T09:05:35.907Z,8.60
2017-08-27T09:08:03.577Z,9.20
2017-08-27T09:10:31.154Z,7.90
2017-08-27T09:12:58.724Z,8.23
2017-08-27T09:15:26.324Z,8.90
2017-08-27T09:17:54.004Z,7.97
2017-08-27T09:20:21.591Z,7.60
2017-08-27T09:22:49.294Z,8.27
2017-08-27T09:25:16.885Z,7.30
2017-08-27T09:27:44.430Z,7.43
2017-08-27T09:30:12.028Z,6.97
2017-08-27T09:32:39.747Z,8.37
2017-08-27T09:35:07.361Z,6.70
2017-08-27T09:37:35.174Z,5.47
2017-08-27T09:40:02.882Z,5.30
2017-08-27T09:42:30.446Z,5.00
2017-08-27T09:44:58.237Z,6.03
2017-08-27T09:47:25.827Z,5.53
2017-08-27T09:49:53.372Z,5.60
2017-08-27T09:52:20.989Z,5.40
2017-08-27T09:54:49.240Z,5.73
2017-08-27T09:57:16.850Z,5.30
2017-08-27T09:59:44.654Z,5.30
2017-08-27T10:02:12.217Z,5.87
2017-08-27T10:04:39.815Z,9.83
2017-08-27T10:07:07.649Z,5.67
2017-08-27T10:09:35.395Z,4.73
2017-08-27T10:12:02.973Z,4.87
2017-08-27T10:14:31.005Z,5.40
2017-08-27T10:16:58.603Z,6.20
2017-08-27T10:19:27.107Z,9.40
2017-08-27T10:21:54.710Z,6.10
2017-08-27T10:24:22.313Z,5.53
2017-08-27T10:26:49.879Z,5.30
2017-08-27T10:29:17.591Z,6.00
2017-08-27T10:31:45.167Z,5.40
2017-08-27T10:34:12.850Z,5.33
2017-08-27T10:36:40.527Z,4.63
2017-08-27T10:39:08.109Z,5.10
2017-08-27T10:41:35.676Z,5.00
2017-08-27T10:44:03.302Z,4.80
2017-08-27T10:46:30.927Z,5.30
2017-08-27T10:48:58.517Z,5.40
2017-08-27T10:51:26.263Z,4.97
2017-08-27T10:53:54.173Z,5.47
2017-08-27T10:56:21.806Z,5.73
2017-08-27T10:58:49.531Z,5.37
2017-08-27T11:01:17.090Z,6.80
2017-08-27T11:03:44.704Z,6.77
2017-08-27T11:06:12.368Z,7.77
2017-08-27T11:08:40.095Z,7.13
2017-08-27T11:11:07.654Z,8.13
2017-08-27T11:13:35.496Z,8.20
2017-08-27T11:16:03.962Z,9.07
2017-08-27T11:18:31.561Z,7.90
2017-08-27T11:20:59.145Z,8.17
2017-08-27T11:23:26.776Z,6.80
2017-08-27T11:25:54.343Z,6.43
2017-08-27T11:28:23.145Z,7.20
2017-08-27T11:30:50.668Z,7.00
2017-08-27T11:33:18.300Z,6.37
2017-08-27T11:35:46.851Z,6.73
2017-08-27T11:38:14.399Z,6.93
2017-08-27T11:40:42.081Z,6.50
2017-08-27T11:43:09.672Z,6.73
2017-08-27T11:45:38.214Z,7.13
2017-08-27T11:48:05.819Z,6.60
2017-08-27T11:50:33.394Z,6.70
2017-08-27T11:53:01.029Z,7.60
2017-08-27T11:55:28.776Z,8.70
2017-08-27T11:57:56.328Z,9.00
2017-08-27T12:00:23.965Z,8.73
2017-08-27T12:02:51.533Z,7.60
2017-08-27T12:05:19.364Z,8.23
2017-08-27T12:07:46.939Z,8.50
2017-08-27T12:10:14.532Z,8.20
2017-08-27T12:12:42.152Z,7.93
2017-08-27T12:15:09.708Z,9.60
2017-08-27T12:17:37.266Z,9.63
2017-08-27T12:20:04.945Z,10.17
2017-08-27T12:22:32.511Z,10.37
2017-08-27T12:25:00.069Z,10.17
2017-08-27T12:27:27.683Z,10.93
2017-08-27T12:29:56.038Z,10.33
2017-08-27T12:32:23.602Z,11.07
2017-08-27T12:34:51.160Z,10.50
2017-08-27T12:37:18.740Z,10.67
2017-08-27T12:39:46.353Z,11.80
2017-08-27T12:42:13.890Z,12.00
2017-08-27T12:44:41.461Z,12.10
2017-08-27T12:47:08.967Z,12.63
2017-08-27T12:49:37.447Z,12.63
2017-08-27T12:52:05.014Z,12.23
2017-08-27T12:54:32.634Z,11.53
2017-08-27T12:57:00.393Z,14.13
2017-08-27T12:59:27.971Z,12.50
2017-08-27T13:01:55.582Z,12.10
2017-08-27T13:04:23.163Z,13.40
2017-08-27T13:06:50.727Z,13.00
2017-08-27T13:09:18.304Z,12.30
2017-08-27T13:11:46.019Z,13.97
2017-08-27T13:14:13.596Z,11.40
2017-08-27T13:16:41.164Z,12.07
2017-08-27T13:19:09.509Z,11.60
2017-08-27T13:21:37.100Z,12.77
2017-08-27T13:24:04.639Z,13.07
2017-08-27T13:26:32.232Z,13.20
2017-08-27T13:28:59.786Z,10.97
2017-08-27T13:31:27.327Z,11.33
2017-08-27T13:33:54.890Z,13.10
2017-08-27T13:36:22.769Z,12.63
2017-08-27T13:39:10.303Z,12.33
2017-08-27T13:41:38.935Z,12.70
2017-08-27T13:44:06.671Z,11.00
2017-08-27T13:46:34.205Z,13.87
2017-08-27T13:49:01.776Z,14.33
2017-08-27T13:51:29.411Z,13.20
2017-08-27T13:53:56.976Z,12.83
2017-08-27T13:56:26.004Z,13.93
2017-08-27T13:58:53.797Z,12.63
2017-08-27T14:01:21.397Z,11.05
2017-08-27T14:03:48.928Z,12.90
2017-08-27T14:06:16.710Z,12.85
2017-08-27T14:08:44.248Z,11.45
2017-08-27T14:11:11.791Z,12.65
2017-08-27T14:13:40.125Z,11.70
2017-08-27T14:16:08.539Z,12.57
2017-08-27T14:18:36.189Z,11.23
2017-08-27T14:21:03.980Z,10.75
2017-08-27T14:23:31.553Z,11.20
2017-08-27T14:25:59.154Z,11.60
2017-08-27T14:28:26.904Z,9.93
2017-08-27T14:30:54.502Z,10.10
2017-08-27T14:33:22.081Z,9.75
2017-08-27T14:35:49.721Z,10.50
2017-08-27T14:38:17.302Z,8.50
2017-08-27T14:40:44.991Z,8.43
2017-08-27T14:43:12.632Z,7.60
2017-08-27T14:45:40.201Z,8.43
2017-08-27T14:48:07.774Z,6.60
2017-08-27T14:50:36.636Z,7.25
2017-08-27T14:53:04.220Z,6.57
2017-08-27T14:55:31.745Z,7.07
2017-08-27T14:57:59.358Z,6.32
2017-08-27T15:00:28.365Z,6.03
2017-08-27T15:02:57.534Z,5.62
2017-08-27T15:05:25.191Z,5.57
2017-08-27T15:07:52.840Z,6.18
2017-08-27T15:10:20.444Z,5.45
2017-08-27T15:12:48.315Z,6.15
2017-08-27T15:15:15.864Z,5.50
2017-08-27T15:17:43.523Z,6.40
2017-08-27T15:20:11.211Z,5.45
2017-08-27T15:22:39.880Z,5.82
2017-08-27T15:25:07.465Z,4.90
2017-08-27T15:27:35.085Z,5.35
2017-08-27T15:30:02.680Z,5.25
2017-08-27T15:32:30.266Z,5.28
2017-08-27T15:34:57.885Z,5.30
2017-08-27T15:37:25.428Z,6.18
2017-08-27T15:39:53.057Z,6.05
2017-08-27T15:42:20.706Z,5.78
2017-08-27T15:44:48.273Z,5.75
2017-08-27T15:47:15.924Z,5.20
2017-08-27T15:49:43.619Z,6.18
2017-08-27T15:52:11.132Z,6.35
2017-08-27T15:54:38.677Z,5.80
2017-08-27T15:57:06.272Z,5.50
2017-08-27T15:59:33.877Z,5.80
2017-08-27T16:02:01.481Z,5.30
2017-08-27T16:04:29.245Z,5.03
2017-08-27T16:06:56.790Z,5.05
2017-08-27T16:09:24.402Z,5.43
2017-08-27T16:11:52.016Z,4.85
2017-08-27T16:14:19.546Z,4.40
2017-08-27T16:16:47.106Z,4.43
2017-08-27T16:19:15.546Z,4.40
2017-08-27T16:21:43.149Z,4.80
2017-08-27T16:24:10.762Z,4.50
2017-08-27T16:26:38.330Z,4.57
2017-08-27T16:29:05.925Z,5.00
2017-08-27T16:31:33.561Z,4.85
2017-08-27T16:34:01.202Z,5.30
2017-08-27T16:36:28.790Z,4.80
2017-08-27T16:38:56.379Z,4.57
2017-08-27T16:41:23.917Z,4.82
2017-08-27T16:43:51.492Z,4.90
2017-08-27T16:46:19.041Z,5.20
2017-08-27T16:48:46.850Z,5.12
2017-08-27T16:51:14.410Z,4.30
2017-08-27T16:53:42.016Z,4.82
2017-08-27T16:58:49.584Z,5.30
2017-08-27T17:01:17.189Z,4.90
2017-08-27T17:03:44.770Z,5.05
2017-08-27T17:06:12.299Z,4.90
2017-08-27T17:08:39.879Z,5.22
2017-08-27T17:11:07.511Z,4.78
2017-08-27T17:13:35.145Z,4.90
2017-08-27T17:16:02.755Z,4.80
2017-08-27T17:18:30.307Z,4.90
2017-08-27T17:20:57.967Z,4.70
2017-08-27T17:23:25.686Z,5.30
2017-08-27T17:25:53.331Z,4.32
2017-08-27T17:28:20.969Z,5.85
2017-08-27T17:30:48.571Z,5.10
2017-08-27T17:33:16.638Z,4.90
2017-08-27T17:35:44.277Z,7.03
2017-08-27T17:38:11.909Z,8.07
2017-08-27T17:40:39.485Z,8.60
2017-08-27T17:43:07.248Z,11.45
2017-08-27T17:45:34.848Z,13.50
2017-08-27T17:48:02.436Z,13.45
2017-08-27T17:50:30.119Z,9.65
2017-08-27T17:52:58.144Z,7.35
2017-08-27T17:55:26.845Z,6.95
2017-08-27T17:57:54.605Z,7.93
2017-08-27T18:00:22.457Z,7.10
2017-08-27T18:02:50.094Z,6.00
2017-08-27T18:05:17.767Z,6.10
2017-08-27T18:07:45.398Z,4.97
2017-08-27T18:10:14.266Z,5.22
2017-08-27T18:12:46.050Z,7.20
2017-08-27T18:15:13.817Z,8.13
2017-08-27T18:17:42.429Z,9.18
2017-08-27T18:20:10.922Z,9.23
2017-08-27T18:22:39.249Z,9.90
2017-08-27T18:25:06.850Z,8.88
2017-08-27T18:27:34.577Z,7.28
2017-08-27T18:30:02.457Z,8.38
2017-08-27T18:32:30.525Z,6.43
2017-08-27T18:34:58.237Z,6.82
2017-08-27T18:37:26.927Z,6.60
2017-08-27T18:39:54.562Z,6.45
2017-08-27T18:42:22.171Z,6.68
2017-08-27T18:44:50.299Z,6.70
2017-08-27T18:47:17.991Z,5.80
2017-08-27T18:49:45.731Z,6.60
2017-08-27T18:52:14.041Z,5.62
2017-08-27T18:54:41.674Z,5.45
2017-08-27T18:57:09.350Z,6.62
2017-08-27T18:59:37.015Z,5.20
2017-08-27T19:02:04.615Z,6.18
2017-08-27T19:04:32.243Z,6.03
2017-08-27T19:06:59.877Z,6.10
2017-08-27T19:09:27.560Z,6.03
2017-08-27T19:11:55.286Z,5.72
2017-08-27T19:14:23.640Z,5.53
2017-08-27T19:16:51.232Z,5.95
2017-08-27T19:19:18.896Z,6.78
2017-08-27T19:21:46.595Z,7.35
2017-08-27T19:24:14.133Z,6.68
2017-08-27T19:26:41.981Z,5.80
2017-08-27T19:29:09.595Z,6.75
2017-08-27T19:31:37.932Z,6.50
2017-08-27T19:34:05.661Z,6.45
2017-08-27T19:36:33.405Z,5.90
2017-08-27T19:39:01.017Z,5.97
2017-08-27T19:41:28.733Z,6.25
2017-08-27T19:43:56.308Z,5.95
2017-08-27T19:46:24.410Z,6.22
2017-08-27T19:48:53.089Z,6.75
2017-08-27T19:51:20.744Z,7.00
2017-08-27T19:53:48.409Z,6.07
2017-08-27T19:56:17.253Z,6.10
2017-08-27T19:58:44.846Z,5.78
2017-08-27T20:01:12.393Z,6.15
2017-08-27T20:03:40.025Z,6.50
2017-08-27T20:06:07.661Z,5.80
2017-08-27T20:08:35.304Z,6.20
2017-08-27T20:11:03.045Z,5.68
2017-08-27T20:13:30.638Z,6.00
2017-08-27T20:15:58.253Z,6.18
2017-08-27T20:18:25.909Z,5.95
2017-08-27T20:20:53.545Z,6.97
2017-08-27T20:23:21.193Z,5.93
2017-08-27T20:25:48.820Z,6.93
2017-08-27T20:28:16.421Z,6.50
2017-08-27T20:30:44.266Z,6.03
2017-08-27T20:33:11.947Z,6.95
2017-08-27T20:35:40.221Z,6.70
2017-08-27T20:38:07.768Z,6.95
2017-08-27T20:40:35.409Z,7.07
2017-08-27T20:43:02.980Z,6.82
2017-08-27T20:45:30.604Z,7.00
2017-08-27T20:47:58.218Z,8.13
2017-08-27T20:50:25.808Z,7.85
2017-08-27T20:52:53.399Z,7.65
2017-08-27T20:55:21.003Z,6.65
2017-08-27T20:57:48.545Z,7.50
2017-08-27T21:00:16.154Z,7.65
2017-08-27T21:02:43.944Z,7.85
2017-08-27T21:05:11.511Z,8.43
2017-08-27T21:07:39.076Z,7.28
2017-08-27T21:10:06.677Z,8.05
2017-08-27T21:12:34.232Z,8.77
2017-08-27T21:15:01.827Z,7.80
2017-08-27T21:17:29.471Z,6.90
2017-08-27T21:19:57.021Z,7.43
2017-08-27T21:22:24.582Z,7.03
2017-08-27T21:24:52.361Z,7.60
2017-08-27T21:27:19.893Z,8.00
2017-08-27T21:29:47.487Z,6.82
2017-08-27T21:32:15.035Z,7.65
2017-08-27T21:34:42.551Z,7.72
2017-08-27T21:37:10.671Z,7.72
2017-08-27T21:39:38.437Z,8.00
2017-08-27T21:42:06.389Z,7.57
2017-08-27T21:44:33.966Z,8.02
2017-08-27T21:47:02.367Z,7.75
2017-08-27T21:49:29.935Z,8.23
2017-08-27T21:51:57.475Z,7.93
2017-08-27T21:54:25.078Z,7.60
2017-08-27T21:56:52.605Z,7.20
2017-08-27T21:59:20.173Z,8.23
2017-08-27T22:01:47.719Z,7.68
2017-08-27T22:04:15.308Z,7.93
2017-08-27T22:06:42.888Z,8.80
2017-08-27T22:09:10.469Z,7.90
2017-08-27T22:11:38.051Z,8.02
2017-08-27T22:14:05.541Z,8.07
2017-08-27T22:16:33.124Z,8.18
2017-08-27T22:19:00.763Z,7.32
2017-08-27T22:21:28.300Z,8.35
2017-08-27T22:23:55.938Z,8.23
2017-08-27T22:26:23.524Z,8.75
2017-08-27T22:28:51.084Z,7.65
2017-08-27T22:31:18.827Z,7.55
2017-08-27T22:33:46.367Z,8.32
2017-08-27T22:36:13.941Z,8.02
2017-08-27T22:38:41.489Z,7.35
2017-08-27T22:41:09.113Z,7.97
2017-08-27T22:43:36.660Z,8.10
2017-08-27T22:46:04.447Z,7.57
2017-08-27T22:48:32.028Z,7.97
2017-08-27T22:50:59.575Z,7.95
2017-08-27T22:53:27.315Z,8.23
2017-08-27T22:55:54.948Z,7.55
2017-08-27T22:58:23.214Z,7.75
2017-08-27T23:00:50.843Z,8.20
2017-08-27T23:03:18.392Z,8.60
2017-08-27T23:05:46.761Z,8.52
2017-08-27T23:08:14.374Z,8.45
2017-08-27T23:10:42.807Z,8.18
2017-08-27T23:13:10.339Z,8.00
2017-08-27T23:15:37.966Z,8.90
2017-08-27T23:18:05.529Z,8.50
2017-08-27T23:20:33.110Z,7.85
2017-08-27T23:23:00.712Z,8.95
2017-08-27T23:25:28.248Z,7.60
2017-08-27T23:27:55.750Z,7.45
2017-08-27T23:30:23.453Z,8.63
2017-08-27T23:32:51.040Z,8.20
2017-08-27T23:35:18.628Z,7.32
2017-08-27T23:37:46.225Z,7.53
2017-08-27T23:40:13.739Z,7.47
2017-08-27T23:42:41.891Z,7.50
2017-08-27T23:45:09.495Z,7.90
2017-08-27T23:47:37.033Z,7.90
2017-08-27T23:50:04.526Z,8.52
2017-08-27T23:52:32.114Z,8.25
2017-08-27T23:54:59.609Z,8.50
2017-08-27T23:57:27.142Z,7.57
2017-08-27T23:59:54.690Z,8.27
